createdAt,value
2017-10-28T00:02:35.908Z,2.00
2017-10-28T00:17:48.058Z,1.20
2017-10-28T00:47:41.859Z,1.70
2017-10-28T01:02:37.286Z,1.80
2017-10-28T01:17:40.174Z,1.90
2017-10-28T01:32:37.211Z,2.27
2017-10-28T01:47:37.327Z,2.60
2017-10-28T02:02:44.567Z,3.23
2017-10-28T02:47:48.445Z,2.60
2017-10-28T03:02:50.264Z,2.43
2017-10-28T03:17:35.592Z,2.67
2017-10-28T03:32:35.068Z,3.00
2017-10-28T03:47:34.417Z,3.80
2017-10-28T04:02:34.844Z,3.90
2017-10-28T04:17:34.812Z,5.47
2017-10-28T04:32:34.762Z,5.13
2017-10-28T04:47:34.700Z,5.00
2017-10-28T05:02:34.137Z,5.50
2017-10-28T05:17:37.128Z,6.37
2017-10-28T05:32:35.008Z,7.10
2017-10-28T05:47:35.073Z,11.20
2017-10-28T06:02:34.383Z,7.53
2017-10-28T06:17:34.276Z,6.93
2017-10-28T06:32:34.229Z,6.40
2017-10-28T06:47:34.227Z,6.27
2017-10-28T07:02:36.616Z,6.87
2017-10-28T07:17:34.571Z,7.50
2017-10-28T07:32:35.023Z,6.83
2017-10-28T07:47:34.489Z,6.70
2017-10-28T08:02:34.874Z,9.20
2017-10-28T08:17:34.825Z,7.80
2017-10-28T08:32:36.754Z,6.13
2017-10-28T08:47:36.774Z,6.60
2017-10-28T09:02:36.103Z,6.03
2017-10-28T09:17:35.043Z,6.57
2017-10-28T09:32:35.012Z,5.63
2017-10-28T09:47:34.964Z,5.70
2017-10-28T10:02:34.379Z,5.07
2017-10-28T10:17:34.334Z,5.80
2017-10-28T10:32:34.226Z,5.60
2017-10-28T10:47:34.212Z,5.80
2017-10-28T11:02:34.643Z,6.23
2017-10-28T11:17:34.693Z,5.33
2017-10-28T11:32:34.505Z,5.57
2017-10-28T11:47:34.459Z,5.20
2017-10-28T12:02:34.936Z,7.33
2017-10-28T12:17:34.862Z,5.93
2017-10-28T12:32:34.772Z,6.73
2017-10-28T12:47:34.715Z,6.23
2017-10-28T13:02:35.195Z,6.30
2017-10-28T13:17:35.130Z,7.23
2017-10-28T13:32:35.103Z,6.20
2017-10-28T13:47:35.020Z,5.97
2017-10-28T14:02:34.548Z,7.60
2017-10-28T14:17:34.488Z,7.30
2017-10-28T14:32:34.863Z,7.40
2017-10-28T14:47:35.307Z,8.90
2017-10-28T15:02:34.790Z,9.03
2017-10-28T15:17:34.728Z,10.03
2017-10-28T15:32:40.639Z,11.03
2017-10-28T15:47:38.848Z,9.57
2017-10-28T16:02:35.904Z,8.30
2017-10-28T16:17:34.983Z,10.03
2017-10-28T16:32:34.951Z,12.10
2017-10-28T16:47:34.968Z,13.07
2017-10-28T17:02:36.736Z,13.93
2017-10-28T17:17:34.806Z,9.70
2017-10-28T17:32:35.265Z,10.53
2017-10-28T17:47:36.336Z,11.20
2017-10-28T18:02:35.616Z,11.47
2017-10-28T18:17:34.604Z,11.43
2017-10-28T18:32:34.558Z,10.57
2017-10-28T18:47:34.471Z,9.53
2017-10-28T19:02:35.699Z,10.90
2017-10-28T19:17:36.356Z,10.73
2017-10-28T19:32:34.797Z,10.13
2017-10-28T19:47:36.774Z,12.23
